createdAt,value
2022-11-29T00:01:07.784Z,19.70
2022-11-29T00:03:35.320Z,16.77
2022-11-29T00:06:06.949Z,17.07
2022-11-29T00:08:34.665Z,15.23
2022-11-29T00:11:09.899Z,17.50
2022-11-29T00:13:37.422Z,19.63
2022-11-29T00:16:10.025Z,17.93
2022-11-29T00:18:37.496Z,17.60
2022-11-29T00:21:09.022Z,17.40
2022-11-29T00:23:36.877Z,18.40
2022-11-29T00:26:05.322Z,18.43
2022-11-29T00:28:33.424Z,16.83
2022-11-29T00:31:01.028Z,15.80
2022-11-29T00:33:29.097Z,18.37
2022-11-29T00:35:56.543Z,19.60
2022-11-29T00:38:24.053Z,17.70
2022-11-29T00:40:54.711Z,16.27
2022-11-29T00:43:22.049Z,17.83
2022-11-29T00:45:49.414Z,16.87
2022-11-29T00:48:17.489Z,18.83
2022-11-29T00:50:45.092Z,16.40
2022-11-29T00:53:12.405Z,18.40
2022-11-29T00:55:39.912Z,16.50
2022-11-29T00:58:07.470Z,17.60
2022-11-29T01:00:34.766Z,15.57
2022-11-29T01:03:02.320Z,17.77
2022-11-29T01:05:31.365Z,17.70
2022-11-29T01:07:59.445Z,16.63
2022-11-29T01:10:26.967Z,18.13
2022-11-29T01:12:55.218Z,16.50
2022-11-29T01:15:22.962Z,19.10
2022-11-29T01:17:50.580Z,17.40
2022-11-29T01:20:18.079Z,17.97
2022-11-29T01:22:45.419Z,18.27
2022-11-29T01:25:16.548Z,18.30
2022-11-29T01:27:44.946Z,17.50
2022-11-29T01:30:12.594Z,16.57
2022-11-29T01:32:41.212Z,18.13
2022-11-29T01:35:09.019Z,16.60
2022-11-29T01:37:36.576Z,16.70
2022-11-29T01:40:04.248Z,15.53
2022-11-29T01:42:31.556Z,16.53
2022-11-29T01:45:20.131Z,16.17
2022-11-29T01:47:49.637Z,16.97
2022-11-29T01:50:17.371Z,16.53
2022-11-29T01:52:44.953Z,16.60
2022-11-29T01:55:12.549Z,18.10
2022-11-29T01:57:42.072Z,17.93
2022-11-29T02:00:11.691Z,16.47
2022-11-29T02:02:44.206Z,16.90
2022-11-29T02:05:13.095Z,16.57
2022-11-29T02:07:40.918Z,15.90
2022-11-29T02:10:10.501Z,17.63
2022-11-29T02:12:50.368Z,18.10
2022-11-29T02:15:34.815Z,16.73
2022-11-29T02:18:05.612Z,16.87
2022-11-29T02:20:33.063Z,17.67
2022-11-29T02:23:12.602Z,17.43
2022-11-29T02:25:58.760Z,16.17
2022-11-29T02:28:30.210Z,18.60
2022-11-29T02:31:15.787Z,16.70
2022-11-29T02:33:59.596Z,16.50
2022-11-29T02:36:37.835Z,17.93
2022-11-29T02:39:16.753Z,18.33
2022-11-29T02:41:44.131Z,17.03
2022-11-29T02:44:17.300Z,17.50
2022-11-29T02:47:03.537Z,17.63
2022-11-29T02:49:39.843Z,15.50
2022-11-29T02:52:09.424Z,18.20
2022-11-29T02:54:49.134Z,17.90
2022-11-29T02:57:28.947Z,17.70
2022-11-29T03:00:02.795Z,17.13
2022-11-29T03:02:30.503Z,18.27
2022-11-29T03:05:10.480Z,19.37
2022-11-29T03:08:04.382Z,16.30
2022-11-29T03:10:50.957Z,16.87
2022-11-29T03:13:23.400Z,17.00
2022-11-29T03:15:59.623Z,17.17
2022-11-29T03:18:50.998Z,17.30
2022-11-29T03:21:21.346Z,17.40
2022-11-29T03:23:54.845Z,17.50
2022-11-29T03:26:29.427Z,16.53
2022-11-29T03:29:08.192Z,16.37
2022-11-29T03:31:45.179Z,17.50
2022-11-29T03:34:18.455Z,16.87
2022-11-29T03:36:51.067Z,17.30
2022-11-29T03:39:21.657Z,19.50
2022-11-29T03:42:00.440Z,17.43
2022-11-29T03:44:41.221Z,17.47
2022-11-29T03:47:16.294Z,17.00
2022-11-29T03:49:43.439Z,16.63
2022-11-29T03:52:33.869Z,16.97
2022-11-29T03:55:19.411Z,18.40
2022-11-29T03:58:02.322Z,17.80
2022-11-29T04:00:49.911Z,18.57
2022-11-29T04:03:21.953Z,17.90
2022-11-29T04:05:55.909Z,16.60
2022-11-29T04:08:42.061Z,16.57
2022-11-29T04:11:15.363Z,17.30
2022-11-29T04:14:01.318Z,16.90
2022-11-29T04:16:49.592Z,16.73
2022-11-29T04:19:30.054Z,17.47
2022-11-29T04:22:07.823Z,17.53
2022-11-29T04:24:54.453Z,16.73
2022-11-29T04:27:41.516Z,15.57
2022-11-29T04:30:11.607Z,17.63
2022-11-29T04:32:47.578Z,16.23
2022-11-29T04:35:17.502Z,16.10
2022-11-29T04:38:07.526Z,18.00
2022-11-29T04:40:50.183Z,18.90
2022-11-29T04:43:25.128Z,16.20
2022-11-29T04:46:05.372Z,16.27
2022-11-29T04:48:45.085Z,16.90
2022-11-29T04:51:21.597Z,16.10
2022-11-29T04:53:48.804Z,16.63
2022-11-29T04:56:34.878Z,16.13
2022-11-29T04:59:06.807Z,16.67
2022-11-29T05:01:43.902Z,17.70
2022-11-29T05:04:23.894Z,18.93
2022-11-29T05:07:15.393Z,18.57
2022-11-29T05:09:51.593Z,17.07
2022-11-29T05:12:22.126Z,16.47
2022-11-29T05:15:07.936Z,16.63
2022-11-29T05:17:56.474Z,17.27
2022-11-29T05:20:28.767Z,17.37
2022-11-29T05:23:14.618Z,17.60
2022-11-29T05:25:53.996Z,18.70
2022-11-29T05:28:25.122Z,19.27
2022-11-29T05:31:05.085Z,15.97
2022-11-29T05:33:45.633Z,17.13
2022-11-29T05:36:31.706Z,18.00
2022-11-29T05:39:17.704Z,19.07
2022-11-29T05:42:04.716Z,18.60
2022-11-29T05:44:37.836Z,17.27
2022-11-29T05:47:10.104Z,17.60
2022-11-29T05:49:40.354Z,18.93
2022-11-29T05:52:26.244Z,17.80
2022-11-29T05:55:05.419Z,17.67
2022-11-29T05:57:46.448Z,20.93
2022-11-29T06:00:17.545Z,21.73
2022-11-29T06:03:00.085Z,19.43
2022-11-29T06:05:28.206Z,20.50
2022-11-29T06:07:55.882Z,21.30
2022-11-29T06:10:29.325Z,18.87
2022-11-29T06:13:06.620Z,19.63
2022-11-29T06:15:50.150Z,21.83
2022-11-29T06:18:29.092Z,20.50
2022-11-29T06:20:57.017Z,19.13
2022-11-29T06:23:50.280Z,20.17
2022-11-29T06:26:41.697Z,20.93
2022-11-29T06:29:21.981Z,21.13
2022-11-29T06:31:52.078Z,20.70
2022-11-29T06:34:42.554Z,20.77
2022-11-29T06:37:09.691Z,20.90
2022-11-29T06:39:38.071Z,20.97
2022-11-29T06:42:05.300Z,19.67
2022-11-29T06:44:33.688Z,20.47
2022-11-29T06:47:14.127Z,21.20
2022-11-29T06:50:01.618Z,20.13
2022-11-29T06:52:44.655Z,20.50
2022-11-29T06:55:30.307Z,20.93
2022-11-29T06:57:57.456Z,19.73
2022-11-29T07:00:27.020Z,19.10
2022-11-29T07:03:13.698Z,21.80
2022-11-29T07:05:41.012Z,20.20
2022-11-29T07:08:14.784Z,20.33
2022-11-29T07:10:42.480Z,18.57
2022-11-29T07:13:11.549Z,19.67
2022-11-29T07:15:39.481Z,21.77
2022-11-29T07:18:22.148Z,23.23
2022-11-29T07:20:56.965Z,19.77
2022-11-29T07:23:47.870Z,18.77
2022-11-29T07:26:21.906Z,18.70
2022-11-29T07:28:51.876Z,20.43
2022-11-29T07:31:37.928Z,19.10
2022-11-29T07:34:24.827Z,22.70
2022-11-29T07:37:12.212Z,20.37
2022-11-29T07:40:02.759Z,18.80
2022-11-29T07:42:36.781Z,18.97
2022-11-29T07:45:25.858Z,19.10
2022-11-29T07:47:52.986Z,20.17
2022-11-29T07:50:21.583Z,20.30
2022-11-29T07:52:49.243Z,19.63
2022-11-29T07:55:19.178Z,20.83
2022-11-29T07:57:46.772Z,18.13
2022-11-29T08:00:14.353Z,19.77
2022-11-29T08:02:41.629Z,20.60
2022-11-29T08:05:09.446Z,23.00
2022-11-29T08:07:40.754Z,19.20
2022-11-29T08:10:09.622Z,21.43
2022-11-29T08:12:36.924Z,21.67
2022-11-29T08:15:04.271Z,20.63
2022-11-29T08:17:31.497Z,19.80
2022-11-29T08:20:02.664Z,21.30
2022-11-29T08:22:35.611Z,20.30
2022-11-29T08:25:04.030Z,21.03
2022-11-29T08:27:31.199Z,22.93
2022-11-29T08:29:58.368Z,19.17
2022-11-29T08:32:26.966Z,27.00
2022-11-29T08:34:54.139Z,25.93
2022-11-29T08:37:21.467Z,25.47
2022-11-29T08:39:48.651Z,27.50
2022-11-29T08:42:15.812Z,26.77
2022-11-29T08:44:43.217Z,25.63
2022-11-29T08:47:30.930Z,24.73
2022-11-29T08:50:03.990Z,23.63
2022-11-29T08:52:52.631Z,23.33
2022-11-29T08:55:21.012Z,22.57
2022-11-29T08:57:48.883Z,25.30
2022-11-29T09:00:16.722Z,27.40
2022-11-29T09:02:44.451Z,29.50
2022-11-29T09:05:12.067Z,28.37
2022-11-29T09:07:40.386Z,26.03
2022-11-29T09:10:08.819Z,22.70
2022-11-29T09:12:36.594Z,23.33
2022-11-29T09:15:08.675Z,18.83
2022-11-29T09:17:35.864Z,18.70
2022-11-29T09:20:03.842Z,20.03
2022-11-29T09:22:31.078Z,20.20
2022-11-29T09:24:58.287Z,18.90
2022-11-29T09:27:26.641Z,19.83
2022-11-29T09:29:53.792Z,22.20
2022-11-29T09:32:20.932Z,21.03
2022-11-29T09:34:48.253Z,22.30
2022-11-29T09:37:15.548Z,19.40
2022-11-29T09:39:42.776Z,25.37
2022-11-29T09:42:10.955Z,21.30
2022-11-29T09:44:45.007Z,20.83
2022-11-29T09:47:27.376Z,19.20
2022-11-29T09:50:13.368Z,20.07
2022-11-29T09:52:58.725Z,19.23
2022-11-29T09:55:28.991Z,19.17
2022-11-29T09:57:57.585Z,18.93
2022-11-29T10:00:25.959Z,17.80
2022-11-29T10:02:55.231Z,27.20
2022-11-29T10:05:41.859Z,20.07
2022-11-29T10:08:19.475Z,20.40
2022-11-29T10:10:48.182Z,21.23
2022-11-29T10:13:27.802Z,19.97
2022-11-29T10:16:13.923Z,21.73
2022-11-29T10:18:46.988Z,18.07
2022-11-29T10:21:19.140Z,20.10
2022-11-29T10:23:51.525Z,19.07
2022-11-29T10:26:20.796Z,19.03
2022-11-29T10:28:49.265Z,19.93
2022-11-29T10:31:29.692Z,19.30
2022-11-29T10:33:59.068Z,19.77
2022-11-29T10:36:28.361Z,21.27
2022-11-29T10:39:02.085Z,21.40
2022-11-29T10:41:29.303Z,20.60
2022-11-29T10:43:58.103Z,19.20
2022-11-29T10:46:33.033Z,20.70
2022-11-29T10:49:02.241Z,22.30
2022-11-29T10:51:29.920Z,23.43
2022-11-29T10:53:57.351Z,24.17
2022-11-29T10:56:30.980Z,25.33
2022-11-29T10:59:03.130Z,23.13
2022-11-29T11:01:32.301Z,19.77
2022-11-29T11:04:00.852Z,21.30
2022-11-29T11:06:43.053Z,21.70
2022-11-29T11:09:19.489Z,23.40
2022-11-29T11:11:55.323Z,20.80
2022-11-29T11:14:24.298Z,20.40
2022-11-29T11:16:52.069Z,20.03
2022-11-29T11:19:28.003Z,21.77
2022-11-29T11:21:56.310Z,21.07
2022-11-29T11:24:33.949Z,21.77
2022-11-29T11:27:01.497Z,20.83
2022-11-29T11:29:45.044Z,21.57
2022-11-29T11:32:16.930Z,21.50
2022-11-29T11:34:57.487Z,22.03
2022-11-29T11:37:29.697Z,25.40
2022-11-29T11:39:58.134Z,24.23
2022-11-29T11:42:39.015Z,22.40
2022-11-29T11:45:15.227Z,24.43
2022-11-29T11:47:44.907Z,24.50
2022-11-29T11:50:13.821Z,24.70
2022-11-29T11:52:44.851Z,23.73
2022-11-29T11:55:19.717Z,25.47
2022-11-29T11:58:10.267Z,25.50
2022-11-29T12:01:06.748Z,24.87
2022-11-29T12:03:42.432Z,26.30
2022-11-29T12:06:30.271Z,25.33
2022-11-29T12:09:13.869Z,26.13
2022-11-29T12:11:45.830Z,25.53
2022-11-29T12:14:20.778Z,25.40
2022-11-29T12:16:49.238Z,25.30
2022-11-29T12:19:25.799Z,25.83
2022-11-29T12:21:56.513Z,27.20
2022-11-29T12:24:30.010Z,27.20
2022-11-29T12:27:01.311Z,24.53
2022-11-29T12:29:31.097Z,26.57
2022-11-29T12:32:17.058Z,26.53
2022-11-29T12:34:53.434Z,25.80
2022-11-29T12:37:28.500Z,26.40
2022-11-29T12:40:07.307Z,24.17
2022-11-29T12:42:39.606Z,25.30
2022-11-29T12:45:35.315Z,29.70
2022-11-29T12:48:18.016Z,26.70
2022-11-29T12:50:45.162Z,28.10
2022-11-29T12:53:12.295Z,27.67
2022-11-29T12:55:50.058Z,31.03
2022-11-29T12:58:46.051Z,28.37
2022-11-29T13:01:14.091Z,28.20
2022-11-29T13:03:56.086Z,27.50
2022-11-29T13:06:45.130Z,31.43
2022-11-29T13:09:31.294Z,30.73
2022-11-29T13:11:58.442Z,30.77
2022-11-29T13:14:42.489Z,31.33
2022-11-29T13:17:31.042Z,29.27
2022-11-29T13:20:05.671Z,26.23
2022-11-29T13:22:40.177Z,27.87
2022-11-29T13:25:16.418Z,29.63
2022-11-29T13:27:45.686Z,27.37
2022-11-29T13:30:16.163Z,28.47
2022-11-29T13:32:50.573Z,28.70
2022-11-29T13:35:39.327Z,28.80
2022-11-29T13:38:17.502Z,29.70
2022-11-29T13:41:03.687Z,27.30
2022-11-29T13:43:31.179Z,28.20
2022-11-29T13:46:19.645Z,27.20
2022-11-29T13:48:48.725Z,29.40
2022-11-29T13:51:37.354Z,26.30
2022-11-29T13:54:07.630Z,23.30
2022-11-29T13:56:48.393Z,23.23
2022-11-29T13:59:18.143Z,25.77
2022-11-29T14:01:46.456Z,27.07
2022-11-29T14:05:07.878Z,25.20
2022-11-29T14:07:35.972Z,26.37
2022-11-29T14:10:05.547Z,24.27
2022-11-29T14:12:54.818Z,25.67
2022-11-29T14:15:28.183Z,23.40
2022-11-29T14:17:56.404Z,26.20
2022-11-29T14:20:23.531Z,24.80
2022-11-29T14:23:04.882Z,24.77
2022-11-29T14:28:21.024Z,25.30
2022-11-29T14:30:52.324Z,22.47
2022-11-29T14:33:26.759Z,24.30
2022-11-29T14:36:00.262Z,24.90
2022-11-29T14:38:31.398Z,24.77
2022-11-29T14:41:03.391Z,23.10
2022-11-29T14:43:35.801Z,24.20
2022-11-29T14:46:29.802Z,24.40
2022-11-29T14:48:58.061Z,22.20
2022-11-29T14:51:27.352Z,23.07
2022-11-29T14:54:16.252Z,22.50
2022-11-29T14:56:44.945Z,22.50
2022-11-29T14:59:31.820Z,23.70
2022-11-29T15:02:15.582Z,22.27
2022-11-29T15:04:45.600Z,22.83
2022-11-29T15:07:18.912Z,21.33
2022-11-29T15:09:50.214Z,22.90
2022-11-29T15:12:18.878Z,23.87
2022-11-29T15:14:46.244Z,25.07
2022-11-29T15:17:36.439Z,23.43
2022-11-29T15:20:03.781Z,21.63
2022-11-29T15:22:43.356Z,22.80
2022-11-29T15:25:18.312Z,24.70
2022-11-29T15:27:52.794Z,23.03
2022-11-29T15:30:21.212Z,21.90
2022-11-29T15:32:48.451Z,21.50
2022-11-29T15:35:19.684Z,20.80
2022-11-29T15:37:49.156Z,20.00
2022-11-29T15:40:19.206Z,23.73
2022-11-29T15:43:05.209Z,19.13
2022-11-29T15:45:34.320Z,20.50
2022-11-29T15:48:12.539Z,20.70
2022-11-29T15:50:44.034Z,20.80
2022-11-29T15:53:16.451Z,23.50
2022-11-29T15:55:45.425Z,20.63
2022-11-29T15:58:14.049Z,23.63
2022-11-29T16:00:43.997Z,25.53
2022-11-29T16:03:19.900Z,22.10
2022-11-29T16:05:51.243Z,25.30
2022-11-29T16:08:19.660Z,21.10
2022-11-29T16:10:49.547Z,23.27
2022-11-29T16:13:25.950Z,27.83
2022-11-29T16:16:14.275Z,23.87
2022-11-29T16:18:42.428Z,24.07
2022-11-29T16:21:22.754Z,23.40
2022-11-29T16:23:50.035Z,25.53
2022-11-29T16:26:25.162Z,22.60
2022-11-29T16:28:53.580Z,25.40
2022-11-29T16:31:22.146Z,23.37
2022-11-29T16:33:50.350Z,23.47
2022-11-29T16:36:19.471Z,21.73
2022-11-29T16:38:51.912Z,23.13
2022-11-29T16:41:32.352Z,24.17
2022-11-29T16:44:00.257Z,24.23
2022-11-29T16:46:30.170Z,25.83
2022-11-29T16:48:58.456Z,21.17
2022-11-29T16:51:26.948Z,21.43
2022-11-29T16:53:55.739Z,26.10
2022-11-29T16:56:26.347Z,22.37
2022-11-29T16:59:24.576Z,23.67
2022-11-29T17:01:42.067Z,24.00
2022-11-29T17:04:09.730Z,19.37
2022-11-29T17:06:37.135Z,20.60
2022-11-29T17:09:04.632Z,22.17
2022-11-29T17:11:31.855Z,22.80
2022-11-29T17:14:01.554Z,20.47
2022-11-29T17:16:28.806Z,19.67
2022-11-29T17:18:56.117Z,20.30
2022-11-29T17:21:23.249Z,19.87
2022-11-29T17:23:51.047Z,19.10
2022-11-29T17:26:18.599Z,19.43
2022-11-29T17:28:46.663Z,19.27
2022-11-29T17:31:15.191Z,19.77
2022-11-29T17:33:42.511Z,22.43
2022-11-29T17:36:11.679Z,20.23
2022-11-29T17:38:39.647Z,21.93
2022-11-29T17:41:10.921Z,19.13
2022-11-29T17:43:40.219Z,19.97
2022-11-29T17:46:09.309Z,21.77
2022-11-29T17:48:38.338Z,21.33
2022-11-29T17:51:13.554Z,21.20
2022-11-29T17:53:53.803Z,25.10
2022-11-29T17:56:22.970Z,20.73
2022-11-29T17:58:54.351Z,19.10
2022-11-29T18:01:23.002Z,20.83
2022-11-29T18:03:52.577Z,20.77
2022-11-29T18:06:22.041Z,20.70
2022-11-29T18:08:56.482Z,20.00
2022-11-29T18:11:28.290Z,19.37
2022-11-29T18:13:55.959Z,20.20
2022-11-29T18:16:24.721Z,20.50
2022-11-29T18:18:56.157Z,21.93
2022-11-29T18:21:23.606Z,19.27
2022-11-29T18:23:50.786Z,22.70
2022-11-29T18:26:19.440Z,19.40
2022-11-29T18:28:47.181Z,20.50
2022-11-29T18:31:15.751Z,19.70
2022-11-29T18:33:43.974Z,19.27
2022-11-29T18:36:15.125Z,20.90
2022-11-29T18:38:43.388Z,21.93
2022-11-29T18:41:15.498Z,20.83
2022-11-29T18:43:42.939Z,21.57
2022-11-29T18:46:11.357Z,21.87
2022-11-29T18:48:38.939Z,21.07
2022-11-29T18:51:07.101Z,19.80
2022-11-29T18:53:35.629Z,22.90
2022-11-29T18:56:08.220Z,21.50
2022-11-29T18:58:35.364Z,20.50
2022-11-29T19:01:22.959Z,18.90
2022-11-29T19:03:51.881Z,21.13
2022-11-29T19:06:23.586Z,20.83
2022-11-29T19:08:51.982Z,21.40
2022-11-29T19:11:21.181Z,21.10
2022-11-29T19:13:56.124Z,21.90
2022-11-29T19:16:24.057Z,21.93
2022-11-29T19:18:52.989Z,21.67
2022-11-29T19:21:21.617Z,21.90
2022-11-29T19:23:53.354Z,22.63
2022-11-29T19:26:22.475Z,32.50
2022-11-29T19:28:49.936Z,31.47
2022-11-29T19:31:19.298Z,27.23
2022-11-29T19:33:46.945Z,25.10
2022-11-29T19:36:15.496Z,20.80
2022-11-29T19:38:43.364Z,19.53
2022-11-29T19:41:15.679Z,19.30
2022-11-29T19:43:43.133Z,21.10
2022-11-29T19:46:18.124Z,22.10
2022-11-29T19:48:45.298Z,21.07
2022-11-29T19:51:13.118Z,21.33
2022-11-29T19:53:40.333Z,25.37
2022-11-29T19:56:09.889Z,24.13
2022-11-29T19:58:37.218Z,20.27
2022-11-29T20:01:05.668Z,21.27
2022-11-29T20:03:33.037Z,22.60
2022-11-29T20:06:00.331Z,19.77
2022-11-29T20:08:28.723Z,24.70
2022-11-29T20:10:56.154Z,20.97
2022-11-29T20:13:23.379Z,20.70
2022-11-29T20:15:50.573Z,20.73
2022-11-29T20:18:17.812Z,23.00
2022-11-29T20:20:44.972Z,24.33
2022-11-29T20:23:12.277Z,23.33
2022-11-29T20:25:39.429Z,23.23
2022-11-29T20:28:06.717Z,22.90
2022-11-29T20:30:34.778Z,21.97
2022-11-29T20:33:02.115Z,21.20
2022-11-29T20:35:29.796Z,21.47
2022-11-29T20:38:11.249Z,24.67
2022-11-29T20:40:58.241Z,48.53
2022-11-29T20:43:42.611Z,44.23
2022-11-29T20:46:10.007Z,27.23
2022-11-29T20:48:37.296Z,23.57
2022-11-29T20:51:04.669Z,26.00
2022-11-29T20:53:35.040Z,22.83
2022-11-29T20:56:02.938Z,23.83
2022-11-29T20:58:30.162Z,24.70
2022-11-29T21:00:57.779Z,27.93
2022-11-29T21:03:25.371Z,22.90
2022-11-29T21:05:52.990Z,20.90
2022-11-29T21:08:23.103Z,22.73
2022-11-29T21:10:50.926Z,21.73
2022-11-29T21:13:19.423Z,23.43
2022-11-29T21:15:46.807Z,23.30
2022-11-29T21:18:20.843Z,24.20
2022-11-29T21:20:51.022Z,23.40
2022-11-29T21:23:26.967Z,22.50
2022-11-29T21:26:02.237Z,24.30
2022-11-29T21:28:30.980Z,22.27
2022-11-29T21:30:58.423Z,22.70
2022-11-29T21:33:26.218Z,24.70
2022-11-29T21:35:57.723Z,23.50
2022-11-29T21:38:26.015Z,22.87
2022-11-29T21:40:53.161Z,21.33
2022-11-29T21:43:20.832Z,21.57
2022-11-29T21:45:49.907Z,21.40
2022-11-29T21:48:35.139Z,23.47
2022-11-29T21:51:08.962Z,23.20
2022-11-29T21:53:37.123Z,21.30
2022-11-29T21:56:05.888Z,23.47
2022-11-29T21:58:35.172Z,20.10
2022-11-29T22:01:09.504Z,21.07
2022-11-29T22:03:38.008Z,20.60
2022-11-29T22:06:06.268Z,20.97
2022-11-29T22:08:34.500Z,20.40
2022-11-29T22:11:03.282Z,22.37
2022-11-29T22:13:30.584Z,21.93
2022-11-29T22:16:25.232Z,25.60
2022-11-29T22:18:52.579Z,20.23
2022-11-29T22:21:20.177Z,19.83
2022-11-29T22:23:47.319Z,21.40
2022-11-29T22:26:14.629Z,18.63
2022-11-29T22:28:42.995Z,18.00
2022-11-29T22:31:11.325Z,18.43
2022-11-29T22:33:41.016Z,18.33
2022-11-29T22:36:12.975Z,19.07
2022-11-29T22:38:40.400Z,19.90
2022-11-29T22:41:09.027Z,18.83
2022-11-29T22:43:36.952Z,18.73
2022-11-29T22:46:10.183Z,17.27
2022-11-29T22:48:39.213Z,17.67
2022-11-29T22:51:07.821Z,17.03
2022-11-29T22:53:36.908Z,17.63
2022-11-29T22:56:05.242Z,16.17
2022-11-29T22:58:34.815Z,18.37
2022-11-29T23:01:11.225Z,17.00
2022-11-29T23:03:39.987Z,16.30
2022-11-29T23:06:08.534Z,16.90
2022-11-29T23:08:36.663Z,14.87
2022-11-29T23:11:05.027Z,16.17
2022-11-29T23:13:34.073Z,18.50
2022-11-29T23:16:01.805Z,18.17
2022-11-29T23:18:29.775Z,18.73
2022-11-29T23:21:01.255Z,16.27
2022-11-29T23:23:29.226Z,15.70
2022-11-29T23:25:56.632Z,16.63
2022-11-29T23:28:24.511Z,16.47
2022-11-29T23:30:54.146Z,17.63
2022-11-29T23:33:26.937Z,15.70
2022-11-29T23:36:05.119Z,17.60
2022-11-29T23:38:36.319Z,16.50
2022-11-29T23:41:04.037Z,15.50
2022-11-29T23:43:34.227Z,14.60
2022-11-29T23:46:06.191Z,16.90
2022-11-29T23:48:33.750Z,15.80
2022-11-29T23:51:02.360Z,15.30
2022-11-29T23:53:29.951Z,14.97
2022-11-29T23:56:06.461Z,15.33
2022-11-29T23:58:35.917Z,14.90
